sensor_id;sensor_type;location;lat;lon;timestamp;P1;durP1;ratioP1;P2;durP2;ratioP2
18689;SDS011;9782;52.930;15.562;2022-07-18T00:00:38;630.43;;;260.17;;
18689;SDS011;9782;52.930;15.562;2022-07-18T00:03:05;627.97;;;252.20;;
18689;SDS011;9782;52.930;15.562;2022-07-18T00:05:32;625.63;;;254.53;;
18689;SDS011;9782;52.930;15.562;2022-07-18T00:07:59;627.97;;;252.00;;
18689;SDS011;9782;52.930;15.562;2022-07-18T00:10:26;629.40;;;260.80;;
18689;SDS011;9782;52.930;15.562;2022-07-18T00:12:54;632.90;;;268.70;;
18689;SDS011;9782;52.930;15.562;2022-07-18T00:15:21;631.17;;;263.53;;
18689;SDS011;9782;52.930;15.562;2022-07-18T00:17:48;634.07;;;265.57;;
18689;SDS011;9782;52.930;15.562;2022-07-18T00:20:16;628.67;;;258.40;;
18689;SDS011;9782;52.930;15.562;2022-07-18T00:22:43;631.67;;;262.70;;
18689;SDS011;9782;52.930;15.562;2022-07-18T00:25:10;624.63;;;251.27;;
18689;SDS011;9782;52.930;15.562;2022-07-18T00:27:37;628.50;;;262.03;;
18689;SDS011;9782;52.930;15.562;2022-07-18T00:30:06;630.40;;;263.30;;
18689;SDS011;9782;52.930;15.562;2022-07-18T00:32:34;625.47;;;257.67;;
18689;SDS011;9782;52.930;15.562;2022-07-18T00:35:01;628.37;;;261.03;;
18689;SDS011;9782;52.930;15.562;2022-07-18T00:37:29;630.17;;;261.63;;
18689;SDS011;9782;52.930;15.562;2022-07-18T00:39:56;626.37;;;256.80;;
18689;SDS011;9782;52.930;15.562;2022-07-18T00:42:23;629.17;;;265.60;;
18689;SDS011;9782;52.930;15.562;2022-07-18T00:44:52;634.50;;;271.57;;
18689;SDS011;9782;52.930;15.562;2022-07-18T00:47:21;628.63;;;261.50;;
18689;SDS011;9782;52.930;15.562;2022-07-18T00:49:49;633.10;;;271.17;;
18689;SDS011;9782;52.930;15.562;2022-07-18T00:52:16;632.73;;;268.13;;
18689;SDS011;9782;52.930;15.562;2022-07-18T00:54:43;634.73;;;270.50;;
18689;SDS011;9782;52.930;15.562;2022-07-18T00:57:10;637.50;;;276.37;;
18689;SDS011;9782;52.930;15.562;2022-07-18T00:59:38;457.83;;;198.67;;
18689;SDS011;9782;52.930;15.562;2022-07-18T01:02:25;462.60;;;208.17;;
18689;SDS011;9782;52.930;15.562;2022-07-18T01:04:52;644.30;;;296.63;;
18689;SDS011;9782;52.930;15.562;2022-07-18T01:07:20;661.23;;;324.47;;
18689;SDS011;9782;52.930;15.562;2022-07-18T01:09:47;491.37;;;246.90;;
18689;SDS011;9782;52.930;15.562;2022-07-18T01:12:14;658.30;;;280.70;;
18689;SDS011;9782;52.930;15.562;2022-07-18T01:14:42;669.27;;;283.47;;
18689;SDS011;9782;52.930;15.562;2022-07-18T01:17:14;667.83;;;290.37;;
18689;SDS011;9782;52.930;15.562;2022-07-18T01:19:43;669.10;;;269.70;;
18689;SDS011;9782;52.930;15.562;2022-07-18T01:22:13;488.87;;;197.53;;
18689;SDS011;9782;52.930;15.562;2022-07-18T01:24:41;485.83;;;154.37;;
18689;SDS011;9782;52.930;15.562;2022-07-18T01:27:08;487.17;;;157.53;;
18689;SDS011;9782;52.930;15.562;2022-07-18T01:29:39;670.93;;;278.57;;
18689;SDS011;9782;52.930;15.562;2022-07-18T01:32:07;667.47;;;189.17;;
18689;SDS011;9782;52.930;15.562;2022-07-18T01:34:35;653.87;;;139.00;;
18689;SDS011;9782;52.930;15.562;2022-07-18T01:37:02;646.33;;;142.90;;
18689;SDS011;9782;52.930;15.562;2022-07-18T01:39:31;650.27;;;142.00;;
18689;SDS011;9782;52.930;15.562;2022-07-18T01:41:59;468.30;;;104.90;;
18689;SDS011;9782;52.930;15.562;2022-07-18T01:44:28;635.57;;;151.83;;
18689;SDS011;9782;52.930;15.562;2022-07-18T01:46:55;625.70;;;153.40;;
18689;SDS011;9782;52.930;15.562;2022-07-18T01:49:22;611.80;;;157.17;;
18689;SDS011;9782;52.930;15.562;2022-07-18T01:51:52;620.80;;;154.57;;
18689;SDS011;9782;52.930;15.562;2022-07-18T01:54:20;583.47;;;166.67;;
18689;SDS011;9782;52.930;15.562;2022-07-18T01:56:49;554.07;;;166.83;;
18689;SDS011;9782;52.930;15.562;2022-07-18T01:59:16;459.77;;;156.53;;
18689;SDS011;9782;52.930;15.562;2022-07-18T02:01:44;632.03;;;252.30;;
18689;SDS011;9782;52.930;15.562;2022-07-18T02:04:12;625.93;;;245.03;;
18689;SDS011;9782;52.930;15.562;2022-07-18T02:06:39;615.20;;;161.77;;
18689;SDS011;9782;52.930;15.562;2022-07-18T02:09:06;616.47;;;174.97;;
18689;SDS011;9782;52.930;15.562;2022-07-18T02:11:35;674.20;;;317.00;;
18689;SDS011;9782;52.930;15.562;2022-07-18T02:14:04;645.83;;;285.07;;
18689;SDS011;9782;52.930;15.562;2022-07-18T02:16:32;647.63;;;297.53;;
18689;SDS011;9782;52.930;15.562;2022-07-18T02:18:59;657.47;;;301.63;;
18689;SDS011;9782;52.930;15.562;2022-07-18T02:21:26;644.87;;;265.20;;
18689;SDS011;9782;52.930;15.562;2022-07-18T02:23:53;642.00;;;287.97;;
18689;SDS011;9782;52.930;15.562;2022-07-18T02:26:20;639.67;;;272.37;;
18689;SDS011;9782;52.930;15.562;2022-07-18T02:28:47;644.10;;;284.90;;
18689;SDS011;9782;52.930;15.562;2022-07-18T02:31:15;644.03;;;294.60;;
18689;SDS011;9782;52.930;15.562;2022-07-18T02:33:42;641.77;;;275.90;;
18689;SDS011;9782;52.930;15.562;2022-07-18T02:36:09;643.80;;;297.80;;
18689;SDS011;9782;52.930;15.562;2022-07-18T02:38:36;644.37;;;288.03;;
18689;SDS011;9782;52.930;15.562;2022-07-18T02:41:03;638.27;;;278.87;;
18689;SDS011;9782;52.930;15.562;2022-07-18T02:43:31;641.53;;;289.87;;
18689;SDS011;9782;52.930;15.562;2022-07-18T02:45:58;641.73;;;283.53;;
18689;SDS011;9782;52.930;15.562;2022-07-18T02:48:26;456.63;;;193.13;;
18689;SDS011;9782;52.930;15.562;2022-07-18T02:50:53;639.97;;;286.93;;
18689;SDS011;9782;52.930;15.562;2022-07-18T02:53:20;643.23;;;263.50;;
18689;SDS011;9782;52.930;15.562;2022-07-18T02:55:48;648.80;;;314.93;;
18689;SDS011;9782;52.930;15.562;2022-07-18T02:58:16;649.47;;;301.73;;
18689;SDS011;9782;52.930;15.562;2022-07-18T03:00:43;655.17;;;308.33;;
18689;SDS011;9782;52.930;15.562;2022-07-18T03:03:10;651.57;;;300.50;;
18689;SDS011;9782;52.930;15.562;2022-07-18T03:05:39;655.97;;;324.50;;
18689;SDS011;9782;52.930;15.562;2022-07-18T03:08:06;662.90;;;335.40;;
18689;SDS011;9782;52.930;15.562;2022-07-18T03:10:33;665.47;;;333.60;;
18689;SDS011;9782;52.930;15.562;2022-07-18T03:13:00;491.10;;;258.47;;
18689;SDS011;9782;52.930;15.562;2022-07-18T03:15:27;666.60;;;316.97;;
18689;SDS011;9782;52.930;15.562;2022-07-18T03:17:54;492.47;;;261.33;;
18689;SDS011;9782;52.930;15.562;2022-07-18T03:20:21;675.90;;;342.30;;
18689;SDS011;9782;52.930;15.562;2022-07-18T03:22:49;665.57;;;327.90;;
18689;SDS011;9782;52.930;15.562;2022-07-18T03:25:16;676.30;;;342.80;;
18689;SDS011;9782;52.930;15.562;2022-07-18T03:27:44;488.97;;;248.87;;
18689;SDS011;9782;52.930;15.562;2022-07-18T03:30:11;681.30;;;341.67;;
18689;SDS011;9782;52.930;15.562;2022-07-18T03:32:38;660.53;;;304.67;;
18689;SDS011;9782;52.930;15.562;2022-07-18T03:35:06;677.93;;;328.97;;
18689;SDS011;9782;52.930;15.562;2022-07-18T03:37:33;661.57;;;189.67;;
18689;SDS011;9782;52.930;15.562;2022-07-18T03:40:02;651.97;;;255.93;;
18689;SDS011;9782;52.930;15.562;2022-07-18T03:42:30;654.43;;;303.47;;
18689;SDS011;9782;52.930;15.562;2022-07-18T03:44:57;650.83;;;300.13;;
18689;SDS011;9782;52.930;15.562;2022-07-18T03:47:24;652.27;;;304.67;;
18689;SDS011;9782;52.930;15.562;2022-07-18T03:49:51;654.27;;;313.07;;
18689;SDS011;9782;52.930;15.562;2022-07-18T03:52:18;477.23;;;231.33;;
18689;SDS011;9782;52.930;15.562;2022-07-18T03:54:45;666.57;;;322.60;;
18689;SDS011;9782;52.930;15.562;2022-07-18T03:57:14;660.57;;;317.73;;
18689;SDS011;9782;52.930;15.562;2022-07-18T03:59:41;666.40;;;329.10;;
18689;SDS011;9782;52.930;15.562;2022-07-18T04:02:08;658.07;;;321.30;;
18689;SDS011;9782;52.930;15.562;2022-07-18T04:04:35;482.13;;;243.13;;
18689;SDS011;9782;52.930;15.562;2022-07-18T04:07:02;663.10;;;320.37;;
18689;SDS011;9782;52.930;15.562;2022-07-18T04:09:29;649.00;;;161.97;;
18689;SDS011;9782;52.930;15.562;2022-07-18T04:11:56;480.20;;;168.00;;
18689;SDS011;9782;52.930;15.562;2022-07-18T04:14:24;668.03;;;329.37;;
18689;SDS011;9782;52.930;15.562;2022-07-18T04:16:52;655.57;;;305.53;;
18689;SDS011;9782;52.930;15.562;2022-07-18T04:19:19;677.33;;;296.63;;
18689;SDS011;9782;52.930;15.562;2022-07-18T04:21:48;655.73;;;320.97;;
18689;SDS011;9782;52.930;15.562;2022-07-18T04:24:15;661.97;;;318.03;;
18689;SDS011;9782;52.930;15.562;2022-07-18T04:26:42;666.07;;;287.77;;
18689;SDS011;9782;52.930;15.562;2022-07-18T04:29:09;635.30;;;209.07;;
18689;SDS011;9782;52.930;15.562;2022-07-18T04:31:37;664.13;;;193.70;;
18689;SDS011;9782;52.930;15.562;2022-07-18T04:34:04;497.27;;;184.47;;
18689;SDS011;9782;52.930;15.562;2022-07-18T04:36:31;476.17;;;161.90;;
18689;SDS011;9782;52.930;15.562;2022-07-18T04:38:59;641.00;;;242.60;;
18689;SDS011;9782;52.930;15.562;2022-07-18T04:41:42;659.30;;;325.83;;
18689;SDS011;9782;52.930;15.562;2022-07-18T04:44:17;659.73;;;298.23;;
18689;SDS011;9782;52.930;15.562;2022-07-18T04:49:43;654.53;;;313.07;;
18689;SDS011;9782;52.930;15.562;2022-07-18T04:52:10;657.50;;;329.33;;
18689;SDS011;9782;52.930;15.562;2022-07-18T04:54:37;650.50;;;316.23;;
18689;SDS011;9782;52.930;15.562;2022-07-18T04:57:04;657.20;;;329.13;;
18689;SDS011;9782;52.930;15.562;2022-07-18T04:59:31;658.17;;;327.37;;
18689;SDS011;9782;52.930;15.562;2022-07-18T05:01:58;660.33;;;338.73;;
18689;SDS011;9782;52.930;15.562;2022-07-18T05:04:28;658.77;;;333.37;;
18689;SDS011;9782;52.930;15.562;2022-07-18T05:06:55;662.63;;;337.77;;
18689;SDS011;9782;52.930;15.562;2022-07-18T05:09:22;661.67;;;346.47;;
18689;SDS011;9782;52.930;15.562;2022-07-18T05:11:49;658.47;;;341.57;;
18689;SDS011;9782;52.930;15.562;2022-07-18T05:14:16;664.03;;;350.57;;
18689;SDS011;9782;52.930;15.562;2022-07-18T05:16:43;669.53;;;355.93;;
18689;SDS011;9782;52.930;15.562;2022-07-18T05:19:10;671.00;;;369.80;;
18689;SDS011;9782;52.930;15.562;2022-07-18T05:21:38;669.80;;;370.33;;
18689;SDS011;9782;52.930;15.562;2022-07-18T05:24:06;674.30;;;387.60;;
18689;SDS011;9782;52.930;15.562;2022-07-18T05:26:33;682.10;;;384.13;;
18689;SDS011;9782;52.930;15.562;2022-07-18T05:29:00;673.73;;;371.50;;
18689;SDS011;9782;52.930;15.562;2022-07-18T05:42:59;693.03;;;474.17;;
18689;SDS011;9782;52.930;15.562;2022-07-18T05:45:28;689.27;;;463.37;;
18689;SDS011;9782;52.930;15.562;2022-07-18T06:00:17;729.65;;;607.30;;
18689;SDS011;9782;52.930;15.562;2022-07-18T06:02:46;837.67;;;753.22;;
18689;SDS011;9782;52.930;15.562;2022-07-18T06:05:14;871.92;;;787.00;;
18689;SDS011;9782;52.930;15.562;2022-07-18T06:07:41;867.70;;;781.60;;
18689;SDS011;9782;52.930;15.562;2022-07-18T06:10:09;827.07;;;743.50;;
18689;SDS011;9782;52.930;15.562;2022-07-18T06:12:36;856.50;;;772.90;;
18689;SDS011;9782;52.930;15.562;2022-07-18T06:15:04;846.27;;;762.20;;
18689;SDS011;9782;52.930;15.562;2022-07-18T06:20:01;817.30;;;732.90;;
18689;SDS011;9782;52.930;15.562;2022-07-18T06:22:30;815.80;;;732.50;;
18689;SDS011;9782;52.930;15.562;2022-07-18T06:24:57;805.50;;;722.30;;
18689;SDS011;9782;52.930;15.562;2022-07-18T06:27:25;814.77;;;731.40;;
18689;SDS011;9782;52.930;15.562;2022-07-18T06:29:52;793.70;;;710.40;;
18689;SDS011;9782;52.930;15.562;2022-07-18T06:34:47;799.33;;;716.33;;
18689;SDS011;9782;52.930;15.562;2022-07-18T06:37:14;799.20;;;716.50;;
18689;SDS011;9782;52.930;15.562;2022-07-18T06:39:41;760.47;;;677.30;;
18689;SDS011;9782;52.930;15.562;2022-07-18T06:42:08;825.50;;;740.90;;
18689;SDS011;9782;52.930;15.562;2022-07-18T06:44:37;809.50;;;727.00;;
18689;SDS011;9782;52.930;15.562;2022-07-18T06:54:36;848.53;;;763.43;;
18689;SDS011;9782;52.930;15.562;2022-07-18T06:57:05;843.97;;;759.77;;
18689;SDS011;9782;52.930;15.562;2022-07-18T06:59:34;847.70;;;763.90;;
18689;SDS011;9782;52.930;15.562;2022-07-18T07:02:01;847.20;;;763.37;;
18689;SDS011;9782;52.930;15.562;2022-07-18T07:04:29;846.83;;;762.77;;
18689;SDS011;9782;52.930;15.562;2022-07-18T07:06:56;849.83;;;765.37;;
18689;SDS011;9782;52.930;15.562;2022-07-18T07:09:25;848.83;;;764.33;;
18689;SDS011;9782;52.930;15.562;2022-07-18T07:11:52;845.23;;;760.70;;
18689;SDS011;9782;52.930;15.562;2022-07-18T07:14:23;847.93;;;762.83;;
18689;SDS011;9782;52.930;15.562;2022-07-18T07:16:50;827.80;;;743.80;;
18689;SDS011;9782;52.930;15.562;2022-07-18T07:19:17;818.87;;;735.57;;
18689;SDS011;9782;52.930;15.562;2022-07-18T07:21:44;816.70;;;732.67;;
18689;SDS011;9782;52.930;15.562;2022-07-18T07:24:11;791.60;;;709.93;;
18689;SDS011;9782;52.930;15.562;2022-07-18T07:26:40;796.57;;;714.57;;
18689;SDS011;9782;52.930;15.562;2022-07-18T07:29:07;797.53;;;715.43;;
18689;SDS011;9782;52.930;15.562;2022-07-18T07:31:34;791.53;;;709.73;;
18689;SDS011;9782;52.930;15.562;2022-07-18T07:34:01;787.37;;;705.50;;
18689;SDS011;9782;52.930;15.562;2022-07-18T07:36:28;792.20;;;710.20;;
18689;SDS011;9782;52.930;15.562;2022-07-18T07:38:55;795.00;;;712.87;;
18689;SDS011;9782;52.930;15.562;2022-07-18T07:41:22;805.43;;;722.37;;
18689;SDS011;9782;52.930;15.562;2022-07-18T07:43:51;807.67;;;723.33;;
18689;SDS011;9782;52.930;15.562;2022-07-18T07:48:44;836.80;;;753.03;;
18689;SDS011;9782;52.930;15.562;2022-07-18T07:53:39;878.10;;;793.60;;
18689;SDS011;9782;52.930;15.562;2022-07-18T07:56:06;889.78;;;805.47;;
18689;SDS011;9782;52.930;15.562;2022-07-18T07:58:34;904.08;;;819.20;;
18689;SDS011;9782;52.930;15.562;2022-07-18T08:01:02;923.00;;;837.58;;
18689;SDS011;9782;52.930;15.562;2022-07-18T08:03:29;973.72;;;885.25;;
18689;SDS011;9782;52.930;15.562;2022-07-18T08:05:56;973.60;;;885.75;;
18689;SDS011;9782;52.930;15.562;2022-07-18T08:08:23;772.80;;;692.70;;
18689;SDS011;9782;52.930;15.562;2022-07-18T08:10:51;871.38;;;788.17;;
18689;SDS011;9782;52.930;15.562;2022-07-18T08:15:46;845.35;;;763.30;;
18689;SDS011;9782;52.930;15.562;2022-07-18T08:18:14;1014.03;;;921.80;;
18689;SDS011;9782;52.930;15.562;2022-07-18T08:20:41;1049.18;;;956.42;;
18689;SDS011;9782;52.930;15.562;2022-07-18T08:25:37;1055.43;;;965.47;;
18689;SDS011;9782;52.930;15.562;2022-07-18T08:28:05;1074.22;;;983.47;;
18689;SDS011;9782;52.930;15.562;2022-07-18T08:30:34;1055.25;;;965.60;;
18689;SDS011;9782;52.930;15.562;2022-07-18T08:33:02;1060.90;;;971.33;;
18689;SDS011;9782;52.930;15.562;2022-07-18T08:35:31;1067.38;;;977.50;;
18689;SDS011;9782;52.930;15.562;2022-07-18T08:37:59;1072.30;;;982.45;;
18689;SDS011;9782;52.930;15.562;2022-07-18T08:40:27;1069.05;;;978.70;;
18689;SDS011;9782;52.930;15.562;2022-07-18T08:42:55;1069.95;;;980.33;;
18689;SDS011;9782;52.930;15.562;2022-07-18T08:45:23;1080.60;;;990.20;;
18689;SDS011;9782;52.930;15.562;2022-07-18T08:47:51;1077.40;;;987.45;;
18689;SDS011;9782;52.930;15.562;2022-07-18T08:50:20;1084.13;;;992.17;;
18689;SDS011;9782;52.930;15.562;2022-07-18T08:52:50;1081.55;;;991.17;;
18689;SDS011;9782;52.930;15.562;2022-07-18T08:55:18;1084.63;;;991.90;;
18689;SDS011;9782;52.930;15.562;2022-07-18T09:00:22;1095.10;;;998.03;;
18689;SDS011;9782;52.930;15.562;2022-07-18T09:02:56;1080.47;;;988.92;;
18689;SDS011;9782;52.930;15.562;2022-07-18T09:05:25;1096.43;;;998.25;;
18689;SDS011;9782;52.930;15.562;2022-07-18T09:07:55;1100.18;;;999.08;;
18689;SDS011;9782;52.930;15.562;2022-07-18T09:10:43;1092.13;;;997.50;;
18689;SDS011;9782;52.930;15.562;2022-07-18T09:13:16;1103.95;;;999.90;;
18689;SDS011;9782;52.930;15.562;2022-07-18T09:16:00;1102.53;;;999.90;;
18689;SDS011;9782;52.930;15.562;2022-07-18T09:18:29;1098.75;;;998.90;;
18689;SDS011;9782;52.930;15.562;2022-07-18T09:20:57;1106.72;;;999.90;;
18689;SDS011;9782;52.930;15.562;2022-07-18T09:23:28;1097.72;;;998.65;;
18689;SDS011;9782;52.930;15.562;2022-07-18T09:25:56;1098.28;;;998.83;;
18689;SDS011;9782;52.930;15.562;2022-07-18T09:28:24;1094.18;;;997.92;;
18689;SDS011;9782;52.930;15.562;2022-07-18T09:30:52;1088.55;;;995.60;;
18689;SDS011;9782;52.930;15.562;2022-07-18T09:33:19;1081.82;;;991.20;;
18689;SDS011;9782;52.930;15.562;2022-07-18T09:35:47;1082.72;;;991.78;;
18689;SDS011;9782;52.930;15.562;2022-07-18T09:38:16;1079.28;;;989.05;;
18689;SDS011;9782;52.930;15.562;2022-07-18T09:40:45;1069.30;;;978.88;;
18689;SDS011;9782;52.930;15.562;2022-07-18T09:43:14;1050.90;;;961.40;;
18689;SDS011;9782;52.930;15.562;2022-07-18T09:45:44;1045.38;;;954.65;;
18689;SDS011;9782;52.930;15.562;2022-07-18T09:48:14;1010.55;;;921.40;;
18689;SDS011;9782;52.930;15.562;2022-07-18T09:50:42;1017.40;;;929.28;;
18689;SDS011;9782;52.930;15.562;2022-07-18T09:53:16;999.88;;;912.05;;
18689;SDS011;9782;52.930;15.562;2022-07-18T09:55:50;993.60;;;906.50;;
18689;SDS011;9782;52.930;15.562;2022-07-18T09:58:19;958.00;;;872.08;;
18689;SDS011;9782;52.930;15.562;2022-07-18T10:00:47;962.50;;;876.38;;
18689;SDS011;9782;52.930;15.562;2022-07-18T10:05:42;941.50;;;856.17;;
18689;SDS011;9782;52.930;15.562;2022-07-18T10:08:12;954.30;;;867.10;;
18689;SDS011;9782;52.930;15.562;2022-07-18T10:10:40;933.17;;;847.92;;
18689;SDS011;9782;52.930;15.562;2022-07-18T10:13:10;933.20;;;847.33;;
18689;SDS011;9782;52.930;15.562;2022-07-18T10:15:39;915.20;;;829.67;;
18689;SDS011;9782;52.930;15.562;2022-07-18T10:23:08;907.33;;;823.07;;
18689;SDS011;9782;52.930;15.562;2022-07-18T10:25:43;918.00;;;833.10;;
18689;SDS011;9782;52.930;15.562;2022-07-18T10:36:09;877.23;;;793.03;;
18689;SDS011;9782;52.930;15.562;2022-07-18T10:38:38;899.53;;;812.23;;
18689;SDS011;9782;52.930;15.562;2022-07-18T10:41:25;983.05;;;891.33;;
18689;SDS011;9782;52.930;15.562;2022-07-18T10:43:53;1049.00;;;953.05;;
18689;SDS011;9782;52.930;15.562;2022-07-18T10:46:21;1037.53;;;941.85;;
18689;SDS011;9782;52.930;15.562;2022-07-18T10:48:55;1049.60;;;952.97;;
18689;SDS011;9782;52.930;15.562;2022-07-18T10:51:30;1052.57;;;957.45;;
18689;SDS011;9782;52.930;15.562;2022-07-18T10:59:19;1044.90;;;952.80;;
18689;SDS011;9782;52.930;15.562;2022-07-18T11:01:54;1045.53;;;949.25;;
18689;SDS011;9782;52.930;15.562;2022-07-18T11:04:22;1029.68;;;938.33;;
18689;SDS011;9782;52.930;15.562;2022-07-18T11:06:54;978.90;;;886.08;;
18689;SDS011;9782;52.930;15.562;2022-07-18T11:09:28;969.55;;;877.13;;
18689;SDS011;9782;52.930;15.562;2022-07-18T11:15:01;957.17;;;865.42;;
18689;SDS011;9782;52.930;15.562;2022-07-18T11:20:39;968.13;;;875.58;;
18689;SDS011;9782;52.930;15.562;2022-07-18T11:23:17;958.95;;;867.60;;
18689;SDS011;9782;52.930;15.562;2022-07-18T11:25:46;953.72;;;862.08;;
18689;SDS011;9782;52.930;15.562;2022-07-18T11:28:14;954.13;;;862.67;;
18689;SDS011;9782;52.930;15.562;2022-07-18T11:30:43;973.60;;;880.67;;
18689;SDS011;9782;52.930;15.562;2022-07-18T11:33:20;956.63;;;865.28;;
18689;SDS011;9782;52.930;15.562;2022-07-18T11:35:49;970.47;;;878.45;;
18689;SDS011;9782;52.930;15.562;2022-07-18T11:38:16;967.58;;;875.85;;
18689;SDS011;9782;52.930;15.562;2022-07-18T11:40:47;962.28;;;870.92;;
18689;SDS011;9782;52.930;15.562;2022-07-18T11:43:21;981.00;;;888.90;;
18689;SDS011;9782;52.930;15.562;2022-07-18T11:45:59;990.92;;;897.78;;
18689;SDS011;9782;52.930;15.562;2022-07-18T12:48:18;1003.90;;;911.13;;
18689;SDS011;9782;52.930;15.562;2022-07-18T12:50:45;1004.72;;;911.80;;
18689;SDS011;9782;52.930;15.562;2022-07-18T12:53:22;1011.92;;;918.80;;
18689;SDS011;9782;52.930;15.562;2022-07-18T12:55:49;1010.63;;;917.58;;
18689;SDS011;9782;52.930;15.562;2022-07-18T12:58:16;1019.47;;;926.33;;
18689;SDS011;9782;52.930;15.562;2022-07-18T13:00:43;1005.08;;;912.28;;
18689;SDS011;9782;52.930;15.562;2022-07-18T13:03:12;1007.90;;;915.05;;
18689;SDS011;9782;52.930;15.562;2022-07-18T13:05:39;1012.97;;;919.85;;
18689;SDS011;9782;52.930;15.562;2022-07-18T13:08:07;997.28;;;904.80;;
18689;SDS011;9782;52.930;15.562;2022-07-18T13:10:37;998.10;;;905.58;;
18689;SDS011;9782;52.930;15.562;2022-07-18T13:13:05;994.80;;;902.28;;
18689;SDS011;9782;52.930;15.562;2022-07-18T13:15:33;992.50;;;900.55;;
18689;SDS011;9782;52.930;15.562;2022-07-18T13:18:01;996.58;;;904.10;;
18689;SDS011;9782;52.930;15.562;2022-07-18T13:20:29;982.80;;;891.20;;
18689;SDS011;9782;52.930;15.562;2022-07-18T13:22:56;1018.17;;;924.78;;
18689;SDS011;9782;52.930;15.562;2022-07-18T13:25:26;1005.08;;;912.10;;
18689;SDS011;9782;52.930;15.562;2022-07-18T13:27:55;1016.22;;;923.03;;
18689;SDS011;9782;52.930;15.562;2022-07-18T13:30:22;1010.53;;;917.20;;
18689;SDS011;9782;52.930;15.562;2022-07-18T13:32:52;1002.10;;;909.00;;
18689;SDS011;9782;52.930;15.562;2022-07-18T13:35:20;1004.58;;;911.15;;
18689;SDS011;9782;52.930;15.562;2022-07-18T13:40:56;990.90;;;898.30;;
18689;SDS011;9782;52.930;15.562;2022-07-18T13:43:25;992.00;;;899.08;;
18689;SDS011;9782;52.930;15.562;2022-07-18T13:45:52;982.63;;;890.13;;
18689;SDS011;9782;52.930;15.562;2022-07-18T13:48:19;969.58;;;877.95;;
18689;SDS011;9782;52.930;15.562;2022-07-18T13:51:17;965.97;;;874.58;;
18689;SDS011;9782;52.930;15.562;2022-07-18T13:53:53;952.67;;;861.58;;
18689;SDS011;9782;52.930;15.562;2022-07-18T13:58:58;970.05;;;877.60;;
18689;SDS011;9782;52.930;15.562;2022-07-18T14:11:38;930.53;;;840.22;;
18689;SDS011;9782;52.930;15.562;2022-07-18T14:14:43;940.80;;;850.53;;
18689;SDS011;9782;52.930;15.562;2022-07-18T14:17:38;943.58;;;852.72;;
18689;SDS011;9782;52.930;15.562;2022-07-18T14:20:19;949.90;;;858.83;;
18689;SDS011;9782;52.930;15.562;2022-07-18T14:23:09;942.95;;;852.20;;
18689;SDS011;9782;52.930;15.562;2022-07-18T14:26:21;934.42;;;843.55;;
18689;SDS011;9782;52.930;15.562;2022-07-18T14:29:02;943.92;;;852.83;;
18689;SDS011;9782;52.930;15.562;2022-07-18T14:31:57;944.45;;;852.92;;
18689;SDS011;9782;52.930;15.562;2022-07-18T14:34:36;929.55;;;838.72;;
18689;SDS011;9782;52.930;15.562;2022-07-18T14:40:24;933.38;;;842.40;;
18689;SDS011;9782;52.930;15.562;2022-07-18T14:43:06;920.72;;;830.45;;
18689;SDS011;9782;52.930;15.562;2022-07-18T15:01:04;941.55;;;850.50;;
18689;SDS011;9782;52.930;15.562;2022-07-18T15:21:55;902.83;;;812.42;;
18689;SDS011;9782;52.930;15.562;2022-07-18T15:24:24;910.47;;;819.95;;
18689;SDS011;9782;52.930;15.562;2022-07-18T15:26:59;912.67;;;822.05;;
18689;SDS011;9782;52.930;15.562;2022-07-18T15:29:30;894.13;;;803.88;;
18689;SDS011;9782;52.930;15.562;2022-07-18T15:32:07;867.83;;;779.03;;
18689;SDS011;9782;52.930;15.562;2022-07-18T15:34:42;865.97;;;777.53;;
18689;SDS011;9782;52.930;15.562;2022-07-18T15:37:17;896.03;;;806.17;;
18689;SDS011;9782;52.930;15.562;2022-07-18T15:40:01;873.47;;;784.40;;
18689;SDS011;9782;52.930;15.562;2022-07-18T15:42:29;861.80;;;773.60;;
18689;SDS011;9782;52.930;15.562;2022-07-18T15:45:16;882.67;;;793.72;;
18689;SDS011;9782;52.930;15.562;2022-07-18T15:47:53;862.58;;;774.80;;
18689;SDS011;9782;52.930;15.562;2022-07-18T15:50:31;851.08;;;763.63;;
18689;SDS011;9782;52.930;15.562;2022-07-18T15:53:05;844.60;;;757.67;;
18689;SDS011;9782;52.930;15.562;2022-07-18T15:55:41;849.10;;;762.08;;
18689;SDS011;9782;52.930;15.562;2022-07-18T15:58:32;856.63;;;769.45;;
18689;SDS011;9782;52.930;15.562;2022-07-18T16:01:02;854.40;;;766.85;;
18689;SDS011;9782;52.930;15.562;2022-07-18T16:03:39;862.60;;;775.00;;
18689;SDS011;9782;52.930;15.562;2022-07-18T16:06:09;873.05;;;785.25;;
18689;SDS011;9782;52.930;15.562;2022-07-18T16:08:49;859.10;;;771.88;;
18689;SDS011;9782;52.930;15.562;2022-07-18T16:11:38;867.35;;;779.55;;
18689;SDS011;9782;52.930;15.562;2022-07-18T16:14:11;846.83;;;760.10;;
18689;SDS011;9782;52.930;15.562;2022-07-18T16:16:45;851.65;;;764.50;;
18689;SDS011;9782;52.930;15.562;2022-07-18T16:19:24;6.55;;;5.85;;
18689;SDS011;9782;52.930;15.562;2022-07-18T16:21:55;4.65;;;4.13;;
18689;SDS011;9782;52.930;15.562;2022-07-18T16:24:25;3.08;;;2.10;;
18689;SDS011;9782;52.930;15.562;2022-07-18T16:27:07;2.83;;;1.80;;
18689;SDS011;9782;52.930;15.562;2022-07-18T16:29:36;31.17;;;29.05;;
18689;SDS011;9782;52.930;15.562;2022-07-18T16:32:17;417.20;;;386.63;;
18689;SDS011;9782;52.930;15.562;2022-07-18T16:35:09;101.55;;;94.78;;
18689;SDS011;9782;52.930;15.562;2022-07-18T16:37:40;90.25;;;84.35;;
18689;SDS011;9782;52.930;15.562;2022-07-18T16:40:16;612.30;;;568.20;;
18689;SDS011;9782;52.930;15.562;2022-07-18T16:45:26;856.00;;;779.60;;
18689;SDS011;9782;52.930;15.562;2022-07-18T16:48:09;852.05;;;768.45;;
18689;SDS011;9782;52.930;15.562;2022-07-18T16:50:52;830.95;;;743.72;;
18689;SDS011;9782;52.930;15.562;2022-07-18T16:53:20;841.22;;;753.03;;
18689;SDS011;9782;52.930;15.562;2022-07-18T16:55:59;824.92;;;736.97;;
18689;SDS011;9782;52.930;15.562;2022-07-18T16:58:34;829.22;;;741.10;;
18689;SDS011;9782;52.930;15.562;2022-07-18T17:01:06;830.60;;;742.45;;
18689;SDS011;9782;52.930;15.562;2022-07-18T17:03:57;816.60;;;728.97;;
18689;SDS011;9782;52.930;15.562;2022-07-18T17:06:31;826.30;;;738.45;;
18689;SDS011;9782;52.930;15.562;2022-07-18T17:11:35;809.70;;;722.53;;
18689;SDS011;9782;52.930;15.562;2022-07-18T17:14:03;806.03;;;718.95;;
18689;SDS011;9782;52.930;15.562;2022-07-18T17:16:30;799.65;;;712.83;;
18689;SDS011;9782;52.930;15.562;2022-07-18T17:19:00;813.75;;;726.45;;
18689;SDS011;9782;52.930;15.562;2022-07-18T17:21:28;793.00;;;706.63;;
18689;SDS011;9782;52.930;15.562;2022-07-18T17:36:59;848.40;;;761.03;;
18689;SDS011;9782;52.930;15.562;2022-07-18T17:39:28;819.45;;;733.13;;
18689;SDS011;9782;52.930;15.562;2022-07-18T17:41:56;802.15;;;716.33;;